Time;durP1;ratioP1;P1;durP2;ratioP2;P2;SDS_P1;SDS_P2;PMS_P1;PMS_P2;Temp;Humidity;BMP_temperature;BMP_pressure;BME280_temperature;BME280_humidity;BME280_pressure;Samples;Min_cycle;Max_cycle;Signal;HPM_P1;HPM_P2
2022/06/13 00:02:36;;;;;;;36.20;24.17;;;;;;;;;;6210176;28;20493;-62
2022/06/13 00:05:37;;;;;;;35.45;23.75;;;;;;;;;;6207198;28;20485;-61
2022/06/13 00:08:38;;;;;;;33.75;22.80;;;;;;;;;;6201256;28;20121;-61
2022/06/13 00:11:39;;;;;;;36.05;24.45;;;;;;;;;;6207222;28;20100;-61
2022/06/13 00:14:39;;;;;;;37.88;24.17;;;;;;;;;;6206594;28;20532;-60
2022/06/13 00:17:40;;;;;;;36.38;24.23;;;;;;;;;;6201028;28;20050;-61
2022/06/13 00:20:40;;;;;;;38.22;25.85;;;;;;;;;;6205223;28;20161;-61
2022/06/13 00:23:41;;;;;;;36.88;24.95;;;;;;;;;;6198021;28;20038;-61
2022/06/13 00:26:42;;;;;;;37.05;24.88;;;;;;;;;;6203723;28;20121;-62
2022/06/13 00:29:44;;;;;;;41.95;26.70;;;;;;;;;;6204005;28;20038;-61
2022/06/13 00:32:44;;;;;;;41.08;26.73;;;;;;;;;;6200104;28;20527;-61
2022/06/13 00:35:45;;;;;;;38.83;25.65;;;;;;;;;;6206787;28;20038;-61
2022/06/13 00:38:46;;;;;;;40.10;25.85;;;;;;;;;;6201046;28;20078;-61
2022/06/13 00:41:48;;;;;;;37.72;25.65;;;;;;;;;;6200746;28;20104;-60
2022/06/13 00:45:07;;;;;;;40.83;25.97;;;;;;;;;;6202627;28;20045;-61
2022/06/13 00:48:11;;;;;;;38.83;25.83;;;;;;;;;;6207415;28;20144;-61
2022/06/13 00:51:12;;;;;;;40.70;26.60;;;;;;;;;;6211436;28;20544;-61
2022/06/13 00:54:15;;;;;;;35.40;24.65;;;;;;;;;;6211863;28;20132;-61
2022/06/13 00:57:22;;;;;;;40.60;25.75;;;;;;;;;;6209572;28;20058;-61
2022/06/13 01:00:22;;;;;;;38.38;25.83;;;;;;;;;;6207496;28;20494;-61
2022/06/13 01:03:25;;;;;;;39.53;25.15;;;;;;;;;;6210499;28;20038;-59
2022/06/13 01:06:29;;;;;;;40.83;25.98;;;;;;;;;;6209157;28;20042;-61
2022/06/13 01:13:08;;;;;;;39.50;25.90;;;;;;;;;;6189017;28;20137;-61
2022/06/13 01:16:09;;;;;;;36.17;25.65;;;;;;;;;;6207050;28;20053;-61
2022/06/13 01:19:16;;;;;;;39.63;26.42;;;;;;;;;;6210818;28;20622;-62
2022/06/13 01:22:41;;;;;;;38.55;25.95;;;;;;;;;;6210558;28;20046;-61
2022/06/13 01:25:49;;;;;;;41.55;26.90;;;;;;;;;;6207889;28;20465;-61
2022/06/13 01:28:59;;;;;;;40.53;26.65;;;;;;;;;;6208017;28;20516;-61
2022/06/13 01:32:37;;;;;;;38.95;26.75;;;;;;;;;;6210745;28;20073;-61
2022/06/13 01:36:13;;;;;;;43.78;27.35;;;;;;;;;;6201428;28;20053;-60
2022/06/13 01:39:24;;;;;;;41.28;26.85;;;;;;;;;;6203919;28;20088;-61
2022/06/13 01:42:35;;;;;;;40.78;25.65;;;;;;;;;;6210871;28;20097;-61
2022/06/13 01:46:09;;;;;;;37.50;24.93;;;;;;;;;;6206597;28;20090;-61
2022/06/13 01:49:42;;;;;;;38.75;25.55;;;;;;;;;;6209335;28;20060;-61
2022/06/13 01:52:49;;;;;;;44.78;28.02;;;;;;;;;;6207722;28;20157;-61
2022/06/13 01:56:15;;;;;;;39.47;27.25;;;;;;;;;;6203947;28;21079;-62
2022/06/13 01:59:29;;;;;;;47.33;27.33;;;;;;;;;;6198957;28;20065;-61
2022/06/13 02:02:50;;;;;;;39.65;26.85;;;;;;;;;;6208402;28;20042;-61
2022/06/13 02:06:09;;;;;;;41.27;27.83;;;;;;;;;;6206671;28;20069;-61
2022/06/13 02:09:27;;;;;;;38.85;26.73;;;;;;;;;;6205549;28;20128;-62
2022/06/13 02:12:34;;;;;;;43.20;25.63;;;;;;;;;;6202953;28;20141;-61
2022/06/13 02:15:42;;;;;;;36.33;26.20;;;;;;;;;;6204533;28;20053;-62
2022/06/13 02:19:02;;;;;;;42.42;26.10;;;;;;;;;;6205664;28;20074;-61
2022/06/13 02:22:22;;;;;;;38.17;25.50;;;;;;;;;;6206272;28;20210;-61
2022/06/13 02:25:29;;;;;;;38.42;25.27;;;;;;;;;;6201307;28;20038;-61
2022/06/13 02:28:38;;;;;;;40.35;24.50;;;;;;;;;;6206170;28;20046;-62
2022/06/13 02:31:56;;;;;;;40.20;25.25;;;;;;;;;;6207406;28;20088;-61
2022/06/13 02:35:18;;;;;;;36.78;24.70;;;;;;;;;;6207087;28;20441;-61
2022/06/13 02:38:18;;;;;;;;;;;;;;;;;;6205655;28;20409;-61
2022/06/13 02:41:23;;;;;;;41.22;26.55;;;;;;;;;;6204540;28;19968;-60
2022/06/13 02:44:30;;;;;;;39.67;25.52;;;;;;;;;;6208303;28;20906;-60
2022/06/13 02:47:55;;;;;;;40.15;24.83;;;;;;;;;;6208338;28;20485;-61
2022/06/13 02:51:19;;;;;;;41.17;24.30;;;;;;;;;;6202760;28;20074;-62
2022/06/13 02:54:30;;;;;;;45.25;26.13;;;;;;;;;;6199558;28;20057;-61
2022/06/13 02:57:35;;;;;;;39.58;26.33;;;;;;;;;;6202244;28;20088;-62
2022/06/13 03:01:03;;;;;;;41.72;25.35;;;;;;;;;;6205740;28;20038;-61
2022/06/13 03:04:27;;;;;;;39.20;26.08;;;;;;;;;;6204686;28;20046;-61
2022/06/13 03:07:48;;;;;;;39.10;25.55;;;;;;;;;;6200816;28;20501;-60
2022/06/13 03:11:00;;;;;;;36.97;25.80;;;;;;;;;;6204998;28;20807;-61
2022/06/13 03:14:17;;;;;;;40.42;25.70;;;;;;;;;;6205364;28;20069;-61
2022/06/13 03:17:33;;;;;;;41.45;25.55;;;;;;;;;;6204325;28;20054;-61
2022/06/13 03:21:01;;;;;;;37.92;24.85;;;;;;;;;;6205042;28;20089;-61
2022/06/13 03:24:19;;;;;;;37.85;24.88;;;;;;;;;;6207485;28;20066;-61
2022/06/13 03:27:45;;;;;;;37.58;25.10;;;;;;;;;;6205814;28;20050;-61
2022/06/13 03:30:59;;;;;;;36.80;23.90;;;;;;;;;;6206840;28;21994;-61
2022/06/13 03:34:05;;;;;;;38.90;24.05;;;;;;;;;;6204414;28;20493;-61
2022/06/13 03:37:14;;;;;;;40.58;24.88;;;;;;;;;;6208066;28;20070;-61
2022/06/13 03:40:22;;;;;;;34.03;23.30;;;;;;;;;;6205711;28;20046;-61
2022/06/13 03:43:29;;;;;;;38.58;24.25;;;;;;;;;;6202486;28;20136;-61
2022/06/13 03:46:44;;;;;;;34.47;23.40;;;;;;;;;;6208488;28;20778;-61
2022/06/13 03:49:48;;;;;;;35.13;23.98;;;;;;;;;;6201817;28;20401;-61
2022/06/13 03:53:09;;;;;;;36.88;24.75;;;;;;;;;;6205516;28;20496;-61
2022/06/13 03:56:17;;;;;;;37.63;25.38;;;;;;;;;;6200537;28;20042;-61
2022/06/13 03:59:46;;;;;;;40.15;24.92;;;;;;;;;;6202445;28;20073;-60
2022/06/13 04:02:49;;;;;;;41.97;24.38;;;;;;;;;;6206823;28;20060;-61
2022/06/13 04:05:57;;;;;;;;;;;;;;;;;;6201621;28;20057;-61
2022/06/13 04:09:01;;;;;;;39.25;23.17;;;;;;;;;;6201756;28;19921;-61
2022/06/13 04:12:01;;;;;;;37.17;24.75;;;;;;;;;;6201673;28;20053;-61
2022/06/13 04:15:36;;;;;;;36.05;23.70;;;;;;;;;;6207788;28;20494;-61
2022/06/13 04:19:13;;;;;;;33.47;22.42;;;;;;;;;;6205276;28;20480;-61
2022/06/13 04:22:22;;;;;;;34.03;22.70;;;;;;;;;;6204729;28;20042;-61
2022/06/13 04:25:38;;;;;;;36.83;24.10;;;;;;;;;;6210062;28;20049;-61
2022/06/13 04:28:45;;;;;;;34.72;24.55;;;;;;;;;;6205256;28;20073;-61
2022/06/13 04:31:46;;;;;;;36.88;24.55;;;;;;;;;;6202353;28;20416;-61
2022/06/13 04:34:50;;;;;;;37.70;24.03;;;;;;;;;;6207214;28;20073;-61
2022/06/13 04:37:50;;;;;;;37.10;23.50;;;;;;;;;;6211022;28;20860;-62
2022/06/13 04:40:56;;;;;;;37.50;22.53;;;;;;;;;;6213013;28;20073;-61
2022/06/13 04:43:59;;;;;;;33.97;22.17;;;;;;;;;;6208461;28;20042;-61
2022/06/13 04:47:01;;;;;;;37.55;22.95;;;;;;;;;;6206467;28;20462;-61
2022/06/13 04:50:04;;;;;;;47.53;23.30;;;;;;;;;;6199807;28;20094;-61
2022/06/13 04:53:11;;;;;;;35.00;22.60;;;;;;;;;;6204977;28;20357;-61
2022/06/13 04:56:12;;;;;;;34.92;22.15;;;;;;;;;;6206552;28;20056;-61
2022/06/13 04:59:14;;;;;;;34.42;20.85;;;;;;;;;;6202111;28;20505;-61
2022/06/13 05:02:19;;;;;;;33.30;21.48;;;;;;;;;;6206403;28;20560;-61
2022/06/13 05:05:43;;;;;;;32.03;20.63;;;;;;;;;;6207354;28;20045;-62
2022/06/13 05:08:43;;;;;;;34.10;21.02;;;;;;;;;;6212628;28;20088;-62
2022/06/13 05:11:44;;;;;;;33.97;20.92;;;;;;;;;;6203131;28;20050;-61
2022/06/13 05:15:06;;;;;;;34.45;20.48;;;;;;;;;;6210282;28;20072;-62
2022/06/13 05:18:35;;;;;;;;;;;;;;;;;;6206466;28;20101;-61
2022/06/13 05:21:44;;;;;;;33.63;19.02;;;;;;;;;;6206223;28;20471;-62
2022/06/13 05:25:05;;;;;;;28.98;20.17;;;;;;;;;;6209034;28;20042;-62
2022/06/13 05:28:08;;;;;;;30.48;20.10;;;;;;;;;;6207365;28;20416;-62
2022/06/13 05:31:19;;;;;;;30.73;20.27;;;;;;;;;;6208012;28;20084;-62
2022/06/13 05:34:27;;;;;;;29.15;19.35;;;;;;;;;;6208977;28;20378;-62
2022/06/13 05:37:28;;;;;;;32.55;19.33;;;;;;;;;;6211353;28;20416;-62
2022/06/13 05:40:28;;;;;;;29.77;20.00;;;;;;;;;;6205099;28;20088;-63
2022/06/13 05:43:29;;;;;;;31.33;20.87;;;;;;;;;;6209081;28;20042;-62
2022/06/13 05:46:34;;;;;;;31.17;20.17;;;;;;;;;;6200488;28;20060;-61
2022/06/13 05:49:35;;;;;;;30.15;20.50;;;;;;;;;;6205711;28;20050;-63
2022/06/13 05:52:35;;;;;;;27.73;19.27;;;;;;;;;;6206631;28;20541;-62
2022/06/13 05:55:36;;;;;;;32.80;20.47;;;;;;;;;;6208856;28;20636;-62
2022/06/13 05:58:37;;;;;;;28.37;19.07;;;;;;;;;;6185508;28;20461;-63
2022/06/13 06:01:38;;;;;;;32.40;19.67;;;;;;;;;;6204490;28;20520;-63
2022/06/13 06:04:38;;;;;;;29.10;20.00;;;;;;;;;;6197822;28;20042;-62
2022/06/13 06:07:40;;;;;;;31.53;18.07;;;;;;;;;;6211240;28;20065;-62
2022/06/13 06:10:42;;;;;;;30.97;19.07;;;;;;;;;;6200713;28;20046;-62
2022/06/13 06:13:43;;;;;;;27.70;19.00;;;;;;;;;;6213817;28;20073;-61
2022/06/13 06:16:43;;;;;;;25.83;18.37;;;;;;;;;;6216762;28;20054;-63
2022/06/13 06:19:44;;;;;;;25.40;17.90;;;;;;;;;;6216218;28;20140;-65
2022/06/13 06:22:45;;;;;;;25.53;16.73;;;;;;;;;;6208760;28;20129;-62
2022/06/13 06:25:49;;;;;;;;;;;;;;;;;;6198396;28;20430;-62
2022/06/13 06:28:50;;;;;;;28.45;17.67;;;;;;;;;;6203534;28;19922;-62
2022/06/13 06:31:51;;;;;;;26.37;18.07;;;;;;;;;;6199489;28;20089;-62
2022/06/13 06:34:51;;;;;;;27.37;17.80;;;;;;;;;;6204391;28;20295;-61
2022/06/13 06:37:53;;;;;;;31.50;17.33;;;;;;;;;;6209270;28;20046;-62
2022/06/13 06:40:54;;;;;;;;;;;;;;;;;;6202002;28;20517;-61
2022/06/13 06:43:55;;;;;;;25.48;16.80;;;;;;;;;;6204514;28;20020;-62
2022/06/13 06:46:55;;;;;;;25.97;17.03;;;;;;;;;;6198241;28;20133;-61
2022/06/13 06:49:56;;;;;;;23.87;16.80;;;;;;;;;;6208549;28;20057;-62
2022/06/13 06:52:57;;;;;;;26.77;15.80;;;;;;;;;;6203058;28;20149;-61
2022/06/13 07:02:36;;;;;;;21.42;14.43;;;;;;;;;;6203559;28;20065;-61
2022/06/13 07:05:36;;;;;;;23.37;14.50;;;;;;;;;;6203637;28;20129;-61
2022/06/13 07:08:37;;;;;;;21.30;14.13;;;;;;;;;;6207277;28;20053;-61
2022/06/13 07:15:12;;;;;;;17.92;13.10;;;;;;;;;;6185193;28;20065;-62
2022/06/13 07:18:12;;;;;;;21.48;13.18;;;;;;;;;;6195570;28;20501;-62
2022/06/13 07:21:14;;;;;;;22.93;13.40;;;;;;;;;;6208238;28;20056;-62
2022/06/13 07:24:15;;;;;;;18.05;11.90;;;;;;;;;;6202140;28;20180;-62
2022/06/13 07:27:16;;;;;;;23.63;12.60;;;;;;;;;;6203655;28;20521;-63
2022/06/13 07:30:19;;;;;;;18.47;12.40;;;;;;;;;;6207176;28;20307;-62
2022/06/13 07:33:20;;;;;;;18.13;11.77;;;;;;;;;;6205502;28;20738;-62
2022/06/13 07:36:21;;;;;;;19.08;12.32;;;;;;;;;;6206984;28;20072;-63
2022/06/13 07:39:22;;;;;;;20.37;12.67;;;;;;;;;;6208855;28;20402;-62
2022/06/13 07:42:22;;;;;;;17.43;11.77;;;;;;;;;;6208077;28;20056;-62
2022/06/13 07:45:25;;;;;;;20.00;12.00;;;;;;;;;;6209389;28;20555;-62
2022/06/13 07:48:27;;;;;;;24.13;12.15;;;;;;;;;;6199988;28;20061;-63
2022/06/13 07:51:27;;;;;;;20.63;11.77;;;;;;;;;;6209134;28;20053;-62
2022/06/13 07:54:28;;;;;;;16.40;10.80;;;;;;;;;;6212594;28;20556;-61
2022/06/13 07:57:29;;;;;;;19.67;9.87;;;;;;;;;;6204554;28;20054;-62
2022/06/13 08:00:33;;;;;;;16.77;10.10;;;;;;;;;;6210387;28;20619;-63
2022/06/13 08:03:34;;;;;;;19.75;10.93;;;;;;;;;;6212499;28;20056;-61
2022/06/13 08:06:38;;;;;;;19.17;10.17;;;;;;;;;;6210116;28;20133;-64
2022/06/13 08:09:39;;;;;;;16.55;9.60;;;;;;;;;;6201809;28;20081;-64
2022/06/13 08:12:41;;;;;;;16.27;10.53;;;;;;;;;;6210756;28;20057;-62
2022/06/13 08:15:43;;;;;;;16.38;9.43;;;;;;;;;;6208381;28;20045;-64
2022/06/13 08:18:43;;;;;;;16.47;9.57;;;;;;;;;;6204820;28;20521;-60
2022/06/13 08:21:44;;;;;;;13.97;9.50;;;;;;;;;;6202430;28;20042;-64
2022/06/13 08:24:45;;;;;;;16.17;8.80;;;;;;;;;;6213468;28;20061;-63
2022/06/13 08:27:45;;;;;;;15.87;9.53;;;;;;;;;;6210843;28;20038;-63
2022/06/13 08:31:04;;;;;;;15.87;9.80;;;;;;;;;;6210297;28;20038;-63
2022/06/13 08:34:05;;;;;;;16.85;9.80;;;;;;;;;;6207806;28;20097;-63
2022/06/13 08:37:06;;;;;;;16.67;9.60;;;;;;;;;;6197219;28;20121;-64
2022/06/13 08:40:08;;;;;;;14.63;9.30;;;;;;;;;;6211802;28;20133;-64
2022/06/13 08:43:39;;;;;;;16.85;9.70;;;;;;;;;;6207181;28;20046;-62
2022/06/13 08:46:50;;;;;;;24.07;9.50;;;;;;;;;;6205175;28;20524;-64
2022/06/13 08:50:06;;;;;;;13.80;9.63;;;;;;;;;;6203770;28;21228;-63
2022/06/13 08:53:26;;;;;;;15.73;9.90;;;;;;;;;;6208835;28;20401;-63
2022/06/13 08:56:30;;;;;;;18.38;9.65;;;;;;;;;;6205228;28;20092;-63
2022/06/13 08:59:45;;;;;;;14.40;9.50;;;;;;;;;;6208128;28;20093;-61
2022/06/13 09:03:07;;;;;;;17.05;10.23;;;;;;;;;;6206412;28;20520;-62
2022/06/13 09:06:15;;;;;;;15.65;9.93;;;;;;;;;;6206124;28;20493;-63
2022/06/13 09:09:41;;;;;;;17.55;10.50;;;;;;;;;;6198527;28;20082;-63
2022/06/13 09:13:02;;;;;;;16.77;9.80;;;;;;;;;;6205417;28;20074;-63
2022/06/13 09:16:07;;;;;;;17.42;9.75;;;;;;;;;;6203901;28;20153;-63
2022/06/13 09:19:14;;;;;;;16.52;9.70;;;;;;;;;;6208687;28;20120;-60
2022/06/13 09:22:36;;;;;;;14.93;9.35;;;;;;;;;;6210921;28;20041;-63
2022/06/13 09:26:06;;;;;;;18.92;10.35;;;;;;;;;;6208759;28;20394;-64
2022/06/13 09:29:28;;;;;;;15.57;10.23;;;;;;;;;;6205988;28;20050;-63
2022/06/13 09:32:36;;;;;;;17.95;10.18;;;;;;;;;;6205462;28;20519;-62
2022/06/13 09:35:45;;;;;;;16.23;10.07;;;;;;;;;;6199190;28;20728;-64
2022/06/13 09:38:51;;;;;;;16.92;9.85;;;;;;;;;;6208177;28;20111;-63
2022/06/13 09:42:17;;;;;;;12.10;8.98;;;;;;;;;;6198329;28;20054;-63
2022/06/13 09:45:23;;;;;;;13.25;9.07;;;;;;;;;;6211306;28;20520;-64
2022/06/13 09:48:44;;;;;;;16.30;9.60;;;;;;;;;;6210619;28;20102;-64
2022/06/13 09:52:00;;;;;;;15.52;10.02;;;;;;;;;;6208604;28;20078;-64
2022/06/13 09:55:00;;;;;;;14.77;10.18;;;;;;;;;;6195749;28;20639;-64
2022/06/13 09:58:19;;;;;;;15.07;10.07;;;;;;;;;;6203926;28;20130;-62
2022/06/13 10:01:52;;;;;;;15.30;10.20;;;;;;;;;;6211401;28;20042;-64
2022/06/13 10:05:04;;;;;;;18.02;10.55;;;;;;;;;;6201054;28;20165;-61
2022/06/13 10:08:24;;;;;;;18.48;10.20;;;;;;;;;;6201139;28;20050;-64
2022/06/13 10:11:41;;;;;;;27.13;10.95;;;;;;;;;;6210217;28;20053;-64
2022/06/13 10:14:54;;;;;;;16.67;10.55;;;;;;;;;;6204607;28;20053;-63
2022/06/13 10:18:19;;;;;;;19.05;10.65;;;;;;;;;;6207887;28;20060;-64
2022/06/13 10:21:26;;;;;;;15.40;9.98;;;;;;;;;;6197665;28;20405;-64
2022/06/13 10:24:35;;;;;;;16.85;10.82;;;;;;;;;;6198671;28;20514;-62
2022/06/13 10:28:02;;;;;;;15.65;10.73;;;;;;;;;;6183385;28;20417;-62
2022/06/13 10:31:26;;;;;;;16.02;10.75;;;;;;;;;;6192089;28;20149;-63
2022/06/13 10:34:45;;;;;;;18.50;11.13;;;;;;;;;;6187549;28;20068;-63
2022/06/13 10:38:10;;;;;;;18.85;11.20;;;;;;;;;;6190360;28;20133;-62
2022/06/13 10:41:10;;;;;;;18.88;10.95;;;;;;;;;;6192281;28;20050;-61
2022/06/13 10:44:13;;;;;;;21.83;10.50;;;;;;;;;;6191175;28;20894;-64
2022/06/13 10:47:39;;;;;;;15.77;10.25;;;;;;;;;;6185160;28;20050;-62
2022/06/13 10:50:45;;;;;;;13.88;9.18;;;;;;;;;;6187789;28;20045;-62
2022/06/13 10:53:54;;;;;;;17.52;10.35;;;;;;;;;;6197146;28;20500;-62
2022/06/13 10:57:02;;;;;;;17.05;8.48;;;;;;;;;;6187827;28;20054;-62
2022/06/13 11:00:15;;;;;;;13.63;7.90;;;;;;;;;;6191527;28;20973;-62
2022/06/13 11:03:17;;;;;;;13.60;8.23;;;;;;;;;;6192976;28;20449;-59
2022/06/13 11:06:21;;;;;;;;;;;;;;;;;;6189207;28;20088;-61
2022/06/13 11:09:40;;;;;;;10.02;6.20;;;;;;;;;;6189500;28;20004;-62
2022/06/13 11:12:40;;;;;;;11.60;7.00;;;;;;;;;;6190164;28;20085;-62
2022/06/13 11:22:58;;;;;;;11.10;6.90;;;;;;;;;;6193284;28;20049;-63
2022/06/13 11:25:59;;;;;;;9.47;5.50;;;;;;;;;;6182514;28;20054;-61
2022/06/13 11:29:03;;;;;;;8.43;5.80;;;;;;;;;;6191700;28;20457;-62
2022/06/13 11:32:17;;;;;;;10.73;6.15;;;;;;;;;;6190342;28;20100;-63
2022/06/13 11:35:38;;;;;;;11.20;6.47;;;;;;;;;;6190258;28;20148;-62
2022/06/13 11:38:59;;;;;;;11.70;7.28;;;;;;;;;;6189000;28;20037;-62
2022/06/13 11:42:00;;;;;;;10.10;6.75;;;;;;;;;;6190208;28;20070;-63
2022/06/13 11:45:01;;;;;;;12.67;7.10;;;;;;;;;;6189719;28;20520;-62
2022/06/13 11:48:03;;;;;;;14.93;8.23;;;;;;;;;;6190269;28;20671;-62
2022/06/13 11:51:05;;;;;;;14.37;7.40;;;;;;;;;;6190232;28;20046;-62
2022/06/13 11:54:20;;;;;;;11.27;7.43;;;;;;;;;;6190724;28;20077;-62
2022/06/13 11:57:29;;;;;;;12.85;7.15;;;;;;;;;;6187111;28;20054;-61
2022/06/13 12:00:46;;;;;;;14.07;7.85;;;;;;;;;;6189940;28;20046;-61
2022/06/13 12:04:01;;;;;;;12.43;8.25;;;;;;;;;;6189896;28;20572;-62
2022/06/13 12:07:02;;;;;;;10.57;6.88;;;;;;;;;;6187746;28;20050;-61
2022/06/13 12:10:19;;;;;;;9.43;7.10;;;;;;;;;;6192461;28;20142;-62
2022/06/13 12:13:22;;;;;;;11.68;6.70;;;;;;;;;;6188372;28;20096;-60
2022/06/13 12:16:35;;;;;;;10.23;6.68;;;;;;;;;;6185467;28;20042;-61
2022/06/13 12:19:59;;;;;;;9.27;6.70;;;;;;;;;;6188017;28;20144;-61
2022/06/13 12:23:08;;;;;;;11.98;7.18;;;;;;;;;;6187571;28;20061;-61
2022/06/13 12:26:29;;;;;;;11.77;6.90;;;;;;;;;;6188523;28;20084;-61
2022/06/13 12:29:39;;;;;;;11.63;6.68;;;;;;;;;;6192352;28;20791;-61
2022/06/13 12:32:46;;;;;;;15.38;7.40;;;;;;;;;;6184714;28;20046;-62
2022/06/13 12:35:59;;;;;;;10.23;6.80;;;;;;;;;;6186044;28;20050;-61
2022/06/13 12:39:27;;;;;;;10.55;6.78;;;;;;;;;;6194691;28;20089;-62
2022/06/13 12:42:42;;;;;;;12.20;7.97;;;;;;;;;;6189803;28;20058;-61
2022/06/13 12:46:08;;;;;;;12.00;7.97;;;;;;;;;;6192188;28;20120;-63
2022/06/13 12:49:33;;;;;;;11.32;8.35;;;;;;;;;;6195788;28;20050;-61
2022/06/13 12:53:05;;;;;;;13.73;8.90;;;;;;;;;;6194913;28;20690;-61
2022/06/13 12:56:25;;;;;;;15.27;10.07;;;;;;;;;;6189347;28;20480;-61
2022/06/13 12:59:32;;;;;;;16.27;11.25;;;;;;;;;;6195609;28;20049;-61
2022/06/13 13:02:37;;;;;;;21.27;13.18;;;;;;;;;;6196902;28;20050;-61
2022/06/13 13:05:53;;;;;;;20.00;14.18;;;;;;;;;;6183608;28;20524;-61
2022/06/13 13:08:56;;;;;;;22.67;13.30;;;;;;;;;;6194864;28;20058;-60
2022/06/13 13:12:36;;;;;;;19.40;12.90;;;;;;;;;;6193262;28;20093;-61
2022/06/13 13:15:56;;;;;;;17.33;11.88;;;;;;;;;;6194768;28;20074;-61
2022/06/13 13:19:25;;;;;;;16.80;10.90;;;;;;;;;;6192945;28;20062;-61
2022/06/13 13:22:46;;;;;;;13.23;9.60;;;;;;;;;;6191442;28;20053;-61
2022/06/13 13:26:10;;;;;;;12.95;9.00;;;;;;;;;;6172977;28;20070;-60
2022/06/13 13:29:33;;;;;;;12.02;8.18;;;;;;;;;;6192769;28;20049;-60
2022/06/13 13:33:21;;;;;;;15.98;7.55;;;;;;;;;;6194340;28;20058;-61
2022/06/13 13:36:35;;;;;;;12.07;7.57;;;;;;;;;;6181573;28;20108;-61
2022/06/13 13:39:51;;;;;;;14.00;8.48;;;;;;;;;;6190372;28;20084;-63
2022/06/13 13:43:19;;;;;;;11.40;6.78;;;;;;;;;;6188838;28;21019;-63
2022/06/13 13:46:54;;;;;;;11.48;6.72;;;;;;;;;;6183817;28;20921;-61
2022/06/13 13:50:06;;;;;;;16.67;7.20;;;;;;;;;;6191365;28;20054;-62
2022/06/13 13:53:10;;;;;;;12.50;7.50;;;;;;;;;;6191324;28;20674;-62
2022/06/13 13:56:54;;;;;;;14.05;7.88;;;;;;;;;;6184626;28;20046;-62
2022/06/13 13:59:58;;;;;;;14.93;7.53;;;;;;;;;;6125265;28;20158;-63
2022/06/13 14:03:10;;;;;;;11.95;8.18;;;;;;;;;;6192948;28;20146;-61
2022/06/13 14:06:16;;;;;;;16.95;9.35;;;;;;;;;;6189863;28;20049;-63
2022/06/13 14:09:19;;;;;;;14.85;7.85;;;;;;;;;;6192741;28;20560;-64
2022/06/13 14:12:21;;;;;;;15.73;8.80;;;;;;;;;;6191791;28;20049;-62
2022/06/13 14:15:35;;;;;;;13.90;8.68;;;;;;;;;;6189943;28;20705;-61
2022/06/13 14:18:47;;;;;;;16.00;9.43;;;;;;;;;;6192741;28;20120;-63
2022/06/13 14:21:47;;;;;;;15.95;9.27;;;;;;;;;;6193885;28;20042;-61
2022/06/13 14:25:03;;;;;;;21.67;9.73;;;;;;;;;;6189969;28;20046;-64
2022/06/13 14:28:07;;;;;;;17.88;9.60;;;;;;;;;;6194203;28;20092;-61
2022/06/13 14:31:08;;;;;;;17.80;9.75;;;;;;;;;;6195574;28;20145;-62
2022/06/13 14:37:29;;;;;;;18.83;10.40;;;;;;;;;;6196538;28;20076;-61
2022/06/13 14:40:38;;;;;;;;;;;;;;;;;;6196312;28;20140;-61
2022/06/13 14:43:39;;;;;;;17.05;10.52;;;;;;;;;;6179933;28;19925;-61
2022/06/13 14:47:03;;;;;;;20.25;10.75;;;;;;;;;;6198275;28;20548;-60
2022/06/13 14:50:04;;;;;;;18.38;10.13;;;;;;;;;;6196588;28;20088;-60
2022/06/13 14:53:38;;;;;;;17.73;9.65;;;;;;;;;;6196707;28;20057;-62
2022/06/13 14:56:41;;;;;;;17.13;9.73;;;;;;;;;;6194935;28;20222;-62
2022/06/13 15:00:02;;;;;;;19.70;9.68;;;;;;;;;;6197885;28;20434;-60
2022/06/13 15:03:07;;;;;;;17.67;9.25;;;;;;;;;;6196795;28;20064;-61
2022/06/13 15:06:11;;;;;;;20.50;10.63;;;;;;;;;;6190102;28;20097;-62
2022/06/13 15:09:12;;;;;;;20.95;11.23;;;;;;;;;;6193078;28;20062;-61
2022/06/13 15:12:21;;;;;;;23.77;11.73;;;;;;;;;;6193359;28;20810;-62
2022/06/13 15:15:28;;;;;;;18.85;11.52;;;;;;;;;;6189151;28;20081;-61
2022/06/13 15:18:32;;;;;;;17.35;11.55;;;;;;;;;;6188009;28;20050;-61
2022/06/13 15:21:38;;;;;;;19.67;11.50;;;;;;;;;;6191806;28;20057;-61
2022/06/13 15:24:56;;;;;;;18.63;11.60;;;;;;;;;;6175061;28;20091;-62
2022/06/13 15:27:58;;;;;;;21.05;11.65;;;;;;;;;;6191860;28;20129;-62
2022/06/13 15:31:04;;;;;;;;;;;;;;;;;;6195928;28;20050;-60
2022/06/13 15:34:18;;;;;;;19.00;10.70;;;;;;;;;;6190239;28;19929;-61
2022/06/13 15:37:18;;;;;;;18.55;10.88;;;;;;;;;;6189559;28;20062;-61
2022/06/13 15:40:41;;;;;;;18.30;11.77;;;;;;;;;;6196841;28;20050;-62
2022/06/13 15:43:41;;;;;;;;;;;;;;;;;;6192060;28;20050;-60
2022/06/13 15:46:47;;;;;;;25.45;13.65;;;;;;;;;;6194832;28;20372;-62
2022/06/13 15:49:48;;;;;;;19.92;11.85;;;;;;;;;;6190507;28;20545;-62
2022/06/13 15:52:51;;;;;;;20.50;12.00;;;;;;;;;;6192005;28;20064;-60
2022/06/13 15:55:52;;;;;;;20.00;11.38;;;;;;;;;;6186128;28;20060;-62
2022/06/13 15:58:57;;;;;;;17.95;11.35;;;;;;;;;;6190553;28;20448;-62
2022/06/13 16:01:57;;;;;;;26.13;13.05;;;;;;;;;;6192233;28;20409;-61
2022/06/13 16:05:01;;;;;;;24.67;12.03;;;;;;;;;;6191353;28;20050;-61
2022/06/13 16:08:13;;;;;;;24.50;12.43;;;;;;;;;;6189735;28;20520;-60
2022/06/13 16:11:15;;;;;;;21.15;12.27;;;;;;;;;;6189658;28;20037;-61
2022/06/13 16:14:17;;;;;;;17.52;10.77;;;;;;;;;;6193819;28;20954;-62
2022/06/13 16:17:33;;;;;;;20.95;11.55;;;;;;;;;;6195209;28;20097;-62
2022/06/13 16:20:37;;;;;;;25.83;13.32;;;;;;;;;;6195360;28;20172;-61
2022/06/13 16:23:48;;;;;;;24.88;12.88;;;;;;;;;;6198129;28;20041;-61
2022/06/13 16:26:50;;;;;;;27.30;14.18;;;;;;;;;;6194370;28;20042;-60
2022/06/13 16:29:57;;;;;;;18.75;11.38;;;;;;;;;;6196077;28;20053;-62
2022/06/13 16:32:59;;;;;;;19.13;11.95;;;;;;;;;;6194590;28;20152;-60
2022/06/13 16:36:06;;;;;;;21.80;11.85;;;;;;;;;;6196291;28;20053;-61
2022/06/13 16:39:26;;;;;;;22.65;12.32;;;;;;;;;;6198836;28;20061;-61
2022/06/13 16:42:28;;;;;;;20.05;11.35;;;;;;;;;;6195845;28;20081;-60
2022/06/13 16:45:28;;;;;;;18.08;12.10;;;;;;;;;;6193930;28;20144;-60
2022/06/13 16:48:30;;;;;;;23.80;12.40;;;;;;;;;;6194233;28;20046;-60
2022/06/13 16:51:42;;;;;;;21.48;11.52;;;;;;;;;;6195015;28;20057;-61
2022/06/13 16:54:54;;;;;;;18.83;12.40;;;;;;;;;;6191395;28;20085;-58
2022/06/13 16:57:56;;;;;;;22.60;13.70;;;;;;;;;;6196046;28;20143;-61
2022/06/13 17:01:07;;;;;;;;;;;;;;;;;;6199250;28;20081;-61
2022/06/13 17:04:09;;;;;;;25.30;17.73;;;;;;;;;;6191315;28;19925;-60
2022/06/13 17:07:10;;;;;;;;;;;;;;;;;;6193542;28;20491;-60
2022/06/13 17:10:14;;;;;;;27.30;16.70;;;;;;;;;;6195034;28;19926;-61
2022/06/13 17:13:20;;;;;;;24.70;15.38;;;;;;;;;;6192458;28;20053;-61
2022/06/13 17:16:22;;;;;;;27.48;16.50;;;;;;;;;;6187527;28;20149;-60
2022/06/13 17:19:24;;;;;;;29.85;16.35;;;;;;;;;;6193783;28;20176;-61
2022/06/13 17:22:25;;;;;;;26.50;16.42;;;;;;;;;;6199215;28;20053;-61
2022/06/13 17:25:27;;;;;;;24.02;15.80;;;;;;;;;;6195514;28;20050;-61
2022/06/13 17:32:06;;;;;;;27.23;15.63;;;;;;;;;;6197248;28;20081;-60
2022/06/13 17:35:07;;;;;;;26.85;15.98;;;;;;;;;;6189549;28;20499;-60
2022/06/13 17:38:09;;;;;;;27.42;16.80;;;;;;;;;;6188747;28;20074;-61
2022/06/13 17:41:09;;;;;;;26.15;16.48;;;;;;;;;;6193762;28;20124;-62
2022/06/13 17:44:12;;;;;;;28.30;15.65;;;;;;;;;;6197234;28;20042;-61
2022/06/13 17:47:16;;;;;;;30.70;16.92;;;;;;;;;;6196616;28;20521;-61
2022/06/13 17:50:19;;;;;;;31.45;16.98;;;;;;;;;;6192829;28;20457;-60
2022/06/13 17:53:21;;;;;;;28.85;17.23;;;;;;;;;;6193861;28;20408;-61
2022/06/13 17:56:22;;;;;;;32.38;17.48;;;;;;;;;;6188050;28;20562;-60
2022/06/13 17:59:23;;;;;;;28.27;17.10;;;;;;;;;;6188951;28;20420;-62
2022/06/13 18:02:25;;;;;;;32.80;17.92;;;;;;;;;;6191304;28;20046;-60
2022/06/13 18:05:26;;;;;;;31.02;17.63;;;;;;;;;;6188636;28;20039;-61
2022/06/13 18:08:34;;;;;;;27.63;16.30;;;;;;;;;;6193403;28;21141;-59
2022/06/13 18:11:35;;;;;;;29.33;16.65;;;;;;;;;;6192882;28;20116;-60
2022/06/13 18:14:35;;;;;;;31.38;16.30;;;;;;;;;;6188235;28;20057;-61
2022/06/13 18:17:37;;;;;;;34.70;16.45;;;;;;;;;;6191074;28;20088;-60
2022/06/13 18:20:38;;;;;;;30.98;15.70;;;;;;;;;;6190740;28;20133;-69
2022/06/13 18:23:39;;;;;;;33.10;17.63;;;;;;;;;;6187967;28;20058;-62
2022/06/13 18:26:43;;;;;;;30.65;18.48;;;;;;;;;;6192076;28;20583;-62
2022/06/13 18:29:49;;;;;;;32.00;17.80;;;;;;;;;;6175770;28;20076;-61
2022/06/13 18:32:52;;;;;;;33.63;18.58;;;;;;;;;;6188870;28;20894;-60
2022/06/13 18:35:52;;;;;;;32.35;18.45;;;;;;;;;;6187836;28;20717;-61
2022/06/13 18:38:53;;;;;;;36.67;19.70;;;;;;;;;;6186247;28;20050;-61
2022/06/13 18:41:53;;;;;;;36.70;19.70;;;;;;;;;;6191800;28;20824;-60
2022/06/13 18:44:55;;;;;;;33.72;20.00;;;;;;;;;;6186191;28;20081;-60
2022/06/13 18:47:57;;;;;;;33.70;19.00;;;;;;;;;;6190572;28;20049;-60
2022/06/13 18:50:58;;;;;;;38.58;19.70;;;;;;;;;;6187260;28;20119;-59
2022/06/13 18:53:59;;;;;;;35.55;19.88;;;;;;;;;;6189734;28;20058;-60
2022/06/13 18:57:00;;;;;;;42.13;21.08;;;;;;;;;;6188939;28;20464;-61